Time;durP1;ratioP1;P1;durP2;ratioP2;P2;SDS_P1;SDS_P2;PMS_P1;PMS_P2;Temp;Humidity;BMP_temperature;BMP_pressure;BME280_temperature;BME280_humidity;BME280_pressure;Samples;Min_cycle;Max_cycle;Signal;HPM_P1;HPM_P2
2023/07/25 00:01:03;;;;;;;3.45;2.40;;;15.00;99.90;;;14.74;100.00;96297.16;5024698;28;20432;-37
2023/07/25 00:03:28;;;;;;;4.07;2.70;;;15.00;99.90;;;14.78;100.00;96311.88;5024306;28;20183;-38
2023/07/25 00:05:54;;;;;;;4.55;2.35;;;15.00;99.90;;;14.78;100.00;96315.38;5026486;28;20702;-37
2023/07/25 00:08:20;;;;;;;3.15;2.58;;;15.00;99.90;;;14.77;100.00;96300.44;5031478;28;20025;-36
2023/07/25 00:10:45;;;;;;;3.33;2.58;;;15.00;99.90;;;14.78;100.00;96293.31;5031071;28;20373;-37
2023/07/25 00:13:11;;;;;;;4.65;2.70;;;15.00;99.90;;;14.78;100.00;96299.44;5022613;28;20041;-37
2023/07/25 00:15:37;;;;;;;3.40;2.42;;;15.00;99.90;;;14.76;100.00;96288.09;5032752;28;20033;-37
2023/07/25 00:18:04;;;;;;;3.08;2.60;;;15.00;99.90;;;14.77;100.00;96288.94;5024845;28;20086;-37
2023/07/25 00:20:30;;;;;;;5.88;2.75;;;15.00;99.90;;;14.75;100.00;96289.06;5031228;28;20045;-37
2023/07/25 00:22:56;;;;;;;4.28;2.60;;;15.00;99.90;;;14.76;100.00;96296.06;5027130;28;20100;-37
2023/07/25 00:25:21;;;;;;;4.63;2.80;;;15.00;99.90;;;14.77;100.00;96300.44;5028673;28;20196;-37
2023/07/25 00:27:47;;;;;;;3.35;2.47;;;15.00;99.90;;;14.80;100.00;96297.53;5035610;28;20036;-38
2023/07/25 00:30:13;;;;;;;5.72;2.85;;;15.00;99.90;;;14.80;100.00;96291.38;5025940;28;20021;-37
2023/07/25 00:32:38;;;;;;;3.05;2.45;;;15.10;99.90;;;14.83;100.00;96285.88;5029510;28;20025;-37
2023/07/25 00:35:05;;;;;;;3.00;2.40;;;15.00;99.90;;;14.83;100.00;96273.44;5032017;28;20029;-36
2023/07/25 00:37:30;;;;;;;3.92;2.35;;;15.00;99.90;;;14.83;100.00;96268.13;5030448;28;20029;-37
2023/07/25 00:39:57;;;;;;;3.97;2.22;;;15.10;99.90;;;14.87;100.00;96255.47;5027762;28;20029;-37
2023/07/25 00:42:23;;;;;;;2.95;2.30;;;15.10;99.90;;;14.88;100.00;96263.34;5031043;28;20017;-37
2023/07/25 00:44:50;;;;;;;3.58;2.10;;;15.10;99.90;;;14.88;100.00;96271.31;5037326;28;20040;-37
2023/07/25 00:47:18;;;;;;;3.65;1.95;;;15.10;99.90;;;14.88;100.00;96257.19;5026539;28;20040;-39
2023/07/25 00:49:45;;;;;;;3.08;2.40;;;15.10;99.90;;;14.86;100.00;96269.72;5034426;28;20060;-36
2023/07/25 00:52:11;;;;;;;3.63;2.40;;;15.10;99.90;;;14.85;100.00;96268.03;5033346;28;20449;-37
2023/07/25 00:54:49;;;;;;;2.60;2.28;;;15.10;99.90;;;14.84;100.00;96258.34;5036639;28;20153;-36
2023/07/25 00:57:19;;;;;;;2.83;2.40;;;15.00;99.90;;;14.82;100.00;96257.63;5031926;28;20040;-37
2023/07/25 00:59:46;;;;;;;2.78;2.28;;;15.10;99.90;;;14.80;100.00;96256.88;5033972;28;20029;-37
2023/07/25 01:02:13;;;;;;;4.25;2.53;;;15.00;99.90;;;14.77;100.00;96257.97;5032361;28;20028;-37
2023/07/25 01:04:40;;;;;;;3.28;2.45;;;15.00;99.90;;;14.75;100.00;96251.06;5034731;28;20044;-37
2023/07/25 01:07:07;;;;;;;2.92;2.20;;;15.00;99.90;;;14.72;100.00;96252.13;5026911;28;20037;-37
2023/07/25 01:09:46;;;;;;;2.78;2.38;;;15.00;99.90;;;14.70;100.00;96246.09;5028527;28;20303;-39
2023/07/25 01:12:12;;;;;;;4.20;2.40;;;14.90;99.90;;;14.59;100.00;96227.44;5029485;28;20047;-37
2023/07/25 01:14:39;;;;;;;3.75;2.65;;;14.90;99.90;;;14.64;100.00;96247.38;5029681;28;20128;-39
2023/07/25 01:17:14;;;;;;;4.10;2.25;;;14.90;99.90;;;14.62;100.00;96243.13;5030604;28;20033;-37
2023/07/25 01:19:43;;;;;;;3.00;2.22;;;14.90;99.90;;;14.60;100.00;96247.72;5032228;28;20281;-37
2023/07/25 01:22:09;;;;;;;3.70;2.40;;;14.90;99.90;;;14.59;100.00;96241.56;5027669;28;20120;-37
2023/07/25 01:24:38;;;;;;;3.03;2.63;;;14.80;99.90;;;14.59;100.00;96256.59;5029908;28;20309;-37
2023/07/25 01:27:04;;;;;;;2.72;2.22;;;14.80;99.90;;;14.59;100.00;96246.00;5031027;28;20056;-37
2023/07/25 01:29:30;;;;;;;2.90;2.28;;;14.80;99.90;;;14.59;100.00;96241.56;5034723;28;20031;-37
2023/07/25 01:31:55;;;;;;;2.60;2.13;;;14.80;99.90;;;14.58;100.00;96237.19;5029974;28;20396;-37
2023/07/25 01:34:21;;;;;;;3.35;2.33;;;14.80;99.90;;;14.57;100.00;96239.94;5024985;28;20076;-37
2023/07/25 01:36:47;;;;;;;2.92;2.28;;;14.80;99.90;;;14.55;100.00;96234.72;5029311;28;20021;-38
2023/07/25 01:39:13;;;;;;;4.43;2.35;;;14.80;99.90;;;14.53;100.00;96226.03;5028783;28;20029;-37
2023/07/25 01:41:41;;;;;;;4.35;2.28;;;14.80;99.90;;;14.52;100.00;96213.75;5030020;28;20025;-37
2023/07/25 01:44:07;;;;;;;3.97;2.58;;;14.80;99.90;;;14.55;100.00;96212.66;5023637;28;20128;-37
2023/07/25 01:46:32;;;;;;;4.13;2.75;;;14.80;99.90;;;14.52;100.00;96214.59;5027086;28;20426;-37
2023/07/25 01:48:58;;;;;;;4.20;2.60;;;14.80;99.90;;;14.50;100.00;96210.34;5023168;28;20045;-37
2023/07/25 01:51:24;;;;;;;3.40;2.55;;;14.80;99.90;;;14.51;100.00;96204.06;5030948;28;20060;-37
2023/07/25 01:53:50;;;;;;;3.42;2.35;;;14.80;99.90;;;14.48;100.00;96198.97;5032469;28;20045;-37
2023/07/25 01:56:16;;;;;;;2.72;2.38;;;14.70;99.90;;;14.46;100.00;96185.00;5032775;28;20029;-38
2023/07/25 01:58:42;;;;;;;3.38;2.50;;;14.70;99.90;;;14.45;100.00;96185.97;5031132;28;20064;-38
2023/07/25 02:01:07;;;;;;;3.22;2.38;;;14.70;99.90;;;14.44;100.00;96185.09;5031332;28;20033;-37
2023/07/25 02:03:33;;;;;;;2.60;2.30;;;14.70;99.90;;;14.39;100.00;96186.38;5028072;28;20429;-37
2023/07/25 02:05:59;;;;;;;4.82;2.17;;;14.70;99.90;;;14.42;100.00;96188.81;5027401;28;20033;-37
2023/07/25 02:08:25;;;;;;;2.70;2.30;;;14.70;99.90;;;14.38;100.00;96184.72;5030792;28;20115;-37
2023/07/25 02:10:50;;;;;;;4.25;2.70;;;14.70;99.90;;;14.43;100.00;96190.53;5025537;28;20041;-37
2023/07/25 02:13:16;;;;;;;4.75;2.65;;;14.70;99.90;;;14.43;100.00;96175.47;5030287;28;20024;-37
2023/07/25 02:15:41;;;;;;;4.15;2.33;;;14.70;99.90;;;14.43;100.00;96174.63;5028219;28;20033;-37
2023/07/25 02:18:07;;;;;;;3.97;2.90;;;14.70;99.90;;;14.41;100.00;96158.81;5023936;28;20092;-37
2023/07/25 02:20:33;;;;;;;4.20;2.38;;;14.70;99.90;;;14.31;100.00;96149.81;5027981;28;20025;-37
2023/07/25 02:22:59;;;;;;;2.60;2.28;;;14.70;99.90;;;14.39;100.00;96162.50;5025744;28;20024;-38
2023/07/25 02:25:26;;;;;;;3.85;2.47;;;14.70;99.90;;;14.36;100.00;96162.75;5033029;28;20049;-39
2023/07/25 02:27:52;;;;;;;3.30;2.60;;;14.70;99.90;;;14.37;100.00;96173.22;5033390;28;20029;-37
2023/07/25 02:30:19;;;;;;;3.63;2.35;;;14.60;99.90;;;14.29;100.00;96149.91;5028864;28;20064;-37
2023/07/25 02:32:44;;;;;;;3.25;2.30;;;14.60;99.90;;;14.37;100.00;96148.53;5024268;28;20025;-37
2023/07/25 02:35:10;;;;;;;3.45;2.53;;;14.60;99.90;;;14.37;100.00;96153.81;5024649;28;20106;-37
2023/07/25 02:37:36;;;;;;;4.32;2.80;;;14.60;99.90;;;14.36;100.00;96153.00;5022914;28;20493;-38
2023/07/25 02:40:02;;;;;;;2.60;2.30;;;14.60;99.90;;;14.34;100.00;96146.94;5016765;28;20044;-37
2023/07/25 02:42:27;;;;;;;3.65;2.65;;;14.60;99.90;;;14.33;100.00;96140.78;5029758;28;20485;-39
2023/07/25 02:44:53;;;;;;;3.45;2.30;;;14.60;99.90;;;14.31;100.00;96142.69;5026175;28;20028;-37
2023/07/25 02:47:19;;;;;;;3.28;2.30;;;14.60;99.90;;;14.28;100.00;96140.28;5026017;28;20041;-37
2023/07/25 02:49:44;;;;;;;3.85;2.40;;;14.60;99.90;;;14.25;100.00;96148.47;5024623;28;20036;-37
2023/07/25 02:52:10;;;;;;;4.80;2.72;;;14.50;99.90;;;14.24;100.00;96157.34;5027852;28;20079;-37
2023/07/25 02:54:36;;;;;;;2.78;2.40;;;14.50;99.90;;;14.27;100.00;96157.16;5027024;28;20041;-37
2023/07/25 02:57:01;;;;;;;3.80;2.90;;;14.50;99.90;;;14.33;100.00;96162.00;5028406;28;20086;-37
2023/07/25 02:59:29;;;;;;;3.50;2.70;;;14.60;99.90;;;14.36;100.00;96144.19;5025612;28;20568;-37
2023/07/25 03:01:55;;;;;;;5.40;2.85;;;14.70;99.90;;;14.51;100.00;96151.03;5025965;28;20039;-37
2023/07/25 03:04:20;;;;;;;4.43;3.17;;;14.80;99.90;;;14.53;100.00;96141.16;5024972;28;20292;-37
2023/07/25 03:06:46;;;;;;;8.20;2.90;;;14.90;99.90;;;14.58;100.00;96149.66;5031813;28;20063;-37
2023/07/25 03:09:12;;;;;;;3.92;3.05;;;14.90;99.90;;;14.64;100.00;96145.69;5024611;28;20036;-37
2023/07/25 03:11:37;;;;;;;8.32;2.75;;;15.00;99.90;;;14.63;100.00;96136.91;5026524;28;20507;-37
2023/07/25 03:14:03;;;;;;;5.10;2.65;;;15.00;99.90;;;14.62;100.00;96135.19;5027851;28;20037;-37
2023/07/25 03:16:29;;;;;;;4.68;2.78;;;15.00;99.90;;;14.63;100.00;96131.59;5022227;28;20432;-37
2023/07/25 03:18:55;;;;;;;3.97;2.85;;;15.00;99.90;;;14.62;100.00;96124.59;5024352;28;20134;-38
2023/07/25 03:21:20;;;;;;;4.45;2.80;;;15.00;99.90;;;14.57;100.00;96121.41;5026172;28;20477;-37
2023/07/25 03:23:46;;;;;;;5.93;2.95;;;14.90;99.90;;;14.49;100.00;96118.47;5027375;28;20037;-36
2023/07/25 03:26:12;;;;;;;5.97;2.88;;;14.90;99.90;;;14.41;100.00;96115.50;5026639;28;20039;-37
2023/07/25 03:28:38;;;;;;;7.43;3.22;;;14.80;99.90;;;14.32;100.00;96125.84;5028779;28;20091;-36
2023/07/25 03:31:05;;;;;;;5.82;3.05;;;14.70;99.90;;;14.25;100.00;96142.31;5025197;28;20460;-37
2023/07/25 03:33:31;;;;;;;3.95;3.05;;;14.60;99.90;;;14.21;100.00;96160.25;5028586;28;20055;-38
2023/07/25 03:35:56;;;;;;;5.47;2.95;;;14.60;99.90;;;14.20;100.00;96163.84;5022281;28;20484;-37
2023/07/25 03:38:22;;;;;;;4.45;2.92;;;14.50;99.90;;;14.26;100.00;96162.56;5016168;28;20290;-38
2023/07/25 03:40:48;;;;;;;5.53;2.90;;;14.60;99.90;;;14.31;100.00;96163.91;5035889;28;20059;-37
2023/07/25 03:43:13;;;;;;;4.72;3.13;;;14.60;99.90;;;14.30;100.00;96156.06;5023746;28;20336;-38
2023/07/25 03:45:39;;;;;;;5.25;2.95;;;14.70;99.90;;;14.42;100.00;96165.78;5023264;28;20507;-37
2023/07/25 03:48:05;;;;;;;3.38;2.65;;;14.70;99.90;;;14.47;100.00;96154.88;5027210;28;20037;-37
2023/07/25 03:50:31;;;;;;;3.88;2.85;;;14.80;99.90;;;14.57;100.00;96168.28;5028543;28;20025;-37
2023/07/25 03:52:58;;;;;;;3.38;2.53;;;14.90;99.90;;;14.62;100.00;96166.19;5022872;28;20150;-37
2023/07/25 03:55:24;;;;;;;3.80;3.00;;;14.90;99.90;;;14.68;100.00;96166.59;5034803;28;20751;-37
2023/07/25 03:57:50;;;;;;;5.63;2.72;;;14.90;99.90;;;14.67;100.00;96154.28;5035432;28;20033;-37
2023/07/25 04:00:16;;;;;;;5.30;3.20;;;15.00;99.90;;;14.76;100.00;96171.34;5027973;28;20392;-37
2023/07/25 04:02:42;;;;;;;4.47;2.80;;;15.10;99.90;;;14.79;100.00;96157.84;5030898;28;20020;-37
2023/07/25 04:05:08;;;;;;;5.82;3.22;;;15.10;99.90;;;14.82;100.00;96162.06;5036221;28;20033;-37
2023/07/25 04:07:34;;;;;;;3.70;2.60;;;15.10;99.90;;;14.87;100.00;96165.25;5032420;28;20039;-37
2023/07/25 04:10:00;;;;;;;3.97;2.85;;;15.20;99.90;;;14.88;100.00;96158.97;5022661;28;20311;-37
2023/07/25 04:12:26;;;;;;;3.33;2.60;;;15.20;99.90;;;14.92;100.00;96156.94;5027105;28;20099;-39
2023/07/25 04:14:52;;;;;;;4.15;2.30;;;15.20;99.90;;;14.93;100.00;96158.63;5026500;28;20645;-37
2023/07/25 04:17:17;;;;;;;7.05;3.22;;;15.20;99.90;;;14.95;100.00;96152.25;5022945;28;20340;-36
2023/07/25 04:19:43;;;;;;;3.38;2.72;;;15.20;99.90;;;14.97;100.00;96153.00;5029116;28;20151;-38
2023/07/25 04:22:09;;;;;;;4.80;2.60;;;15.20;99.90;;;15.00;100.00;96150.13;5024813;28;20032;-37
2023/07/25 04:24:35;;;;;;;3.92;2.50;;;15.30;99.90;;;15.02;100.00;96149.97;5025150;28;20039;-39
2023/07/25 04:27:00;;;;;;;2.97;2.20;;;15.30;99.90;;;15.03;100.00;96163.13;5033615;28;20464;-37
2023/07/25 04:29:26;;;;;;;4.75;2.45;;;15.30;99.90;;;15.07;100.00;96174.38;5024546;28;20028;-38
2023/07/25 04:31:52;;;;;;;2.78;2.53;;;15.30;99.90;;;15.10;100.00;96165.34;5020639;28;20667;-37
2023/07/25 04:34:18;;;;;;;3.13;2.50;;;15.40;99.90;;;15.13;100.00;96170.41;5025227;28;20654;-37
2023/07/25 04:36:44;;;;;;;2.53;2.08;;;15.40;99.90;;;15.18;100.00;96178.88;5031037;28;20028;-37
2023/07/25 04:39:09;;;;;;;5.53;2.60;;;15.40;99.90;;;15.15;100.00;96168.50;5025412;28;20578;-38
2023/07/25 04:41:35;;;;;;;3.88;2.47;;;15.50;99.90;;;15.21;100.00;96168.03;5025374;28;20091;-38
2023/07/25 04:44:01;;;;;;;3.05;2.58;;;15.50;99.90;;;15.23;100.00;96172.25;5033848;28;20485;-38
2023/07/25 04:46:28;;;;;;;3.10;2.40;;;15.50;99.90;;;15.25;100.00;96178.34;5020515;28;20072;-36
2023/07/25 04:48:54;;;;;;;3.88;2.92;;;15.50;99.90;;;15.28;100.00;96174.59;5031821;28;20473;-37
2023/07/25 04:51:20;;;;;;;3.53;2.28;;;15.60;99.90;;;15.30;100.00;96172.66;5020443;28;20052;-37
2023/07/25 04:53:45;;;;;;;3.08;2.58;;;15.60;99.90;;;15.33;100.00;96179.56;5029847;28;20033;-37
2023/07/25 04:56:11;;;;;;;4.20;2.60;;;15.60;99.90;;;15.35;100.00;96180.28;5016921;28;20032;-38
2023/07/25 04:58:41;;;;;;;4.30;2.47;;;15.60;99.90;;;15.33;100.00;96168.94;5032201;28;20024;-37
2023/07/25 05:01:07;;;;;;;3.00;2.63;;;15.60;99.90;;;15.39;100.00;96177.25;5024804;28;20024;-38
2023/07/25 05:03:33;;;;;;;3.83;2.42;;;15.70;99.90;;;15.41;100.00;96180.66;5025361;28;20098;-38
2023/07/25 05:05:59;;;;;;;4.30;2.72;;;15.70;99.90;;;15.43;100.00;96180.53;5032254;28;20029;-37
2023/07/25 05:08:24;;;;;;;3.08;2.53;;;15.70;99.90;;;15.44;100.00;96174.28;5029070;28;20041;-37
2023/07/25 05:10:51;;;;;;;3.10;2.42;;;15.70;99.90;;;15.46;100.00;96182.97;5028608;28;20076;-37
2023/07/25 05:13:18;;;;;;;3.50;2.45;;;15.70;99.90;;;15.46;100.00;96177.66;5030208;28;20033;-37
2023/07/25 05:15:43;;;;;;;5.53;2.58;;;15.70;99.90;;;15.43;100.00;96169.91;5029750;28;20040;-39
2023/07/25 05:18:09;;;;;;;5.50;2.80;;;15.80;99.90;;;15.48;100.00;96191.66;5033803;28;20032;-38
2023/07/25 05:20:35;;;;;;;4.68;2.55;;;15.80;99.90;;;15.49;100.00;96196.03;5037060;28;20029;-37
2023/07/25 05:23:00;;;;;;;3.40;2.10;;;15.80;99.90;;;15.42;100.00;96182.34;5033310;28;20492;-37
2023/07/25 05:25:26;;;;;;;2.97;2.20;;;15.80;99.90;;;15.36;100.00;96164.25;5025958;28;20032;-38
2023/07/25 05:27:52;;;;;;;2.55;2.15;;;15.80;99.90;;;15.55;100.00;96192.88;5035490;28;20076;-38
2023/07/25 05:30:17;;;;;;;4.00;2.35;;;15.80;99.90;;;15.58;100.00;96191.81;5019228;28;20084;-38
2023/07/25 05:32:43;;;;;;;3.67;2.50;;;15.90;99.90;;;15.50;100.00;96179.09;5033246;28;20098;-38
2023/07/25 05:35:09;;;;;;;3.35;2.60;;;15.90;99.90;;;15.65;100.00;96196.56;5029658;28;20116;-37
2023/07/25 05:37:38;;;;;;;5.18;2.33;;;15.90;99.90;;;15.72;100.00;96202.25;5034542;28;20029;-37
2023/07/25 05:40:05;;;;;;;3.25;2.25;;;16.00;99.90;;;15.77;100.00;96196.59;5028285;28;20048;-38
2023/07/25 05:42:31;;;;;;;3.17;2.58;;;16.00;99.90;;;15.82;100.00;96192.59;5033338;28;20461;-37
2023/07/25 05:44:59;;;;;;;3.88;2.47;;;16.10;99.90;;;15.86;100.00;96189.72;5028196;28;20037;-39
2023/07/25 05:47:25;;;;;;;2.95;2.30;;;16.20;99.90;;;15.86;100.00;96189.72;5028100;28;20033;-37
2023/07/25 05:49:51;;;;;;;5.68;2.45;;;16.10;99.90;;;15.87;100.00;96194.09;5032851;28;20041;-37
2023/07/25 05:52:17;;;;;;;3.72;2.67;;;16.20;99.90;;;15.82;100.00;96192.59;5028759;28;20107;-38
2023/07/25 05:54:44;;;;;;;4.68;2.63;;;16.10;99.90;;;15.87;100.00;96204.72;5028907;28;20405;-37
2023/07/25 05:57:10;;;;;;;3.70;2.55;;;16.20;99.90;;;15.81;100.00;96188.28;5026781;28;20030;-37
2023/07/25 05:59:35;;;;;;;3.00;2.30;;;16.20;99.90;;;15.97;100.00;96197.69;5028133;28;21208;-37
2023/07/25 06:02:03;;;;;;;2.85;2.17;;;16.30;99.90;;;16.01;100.00;96193.88;5031235;28;20021;-38
2023/07/25 06:04:30;;;;;;;3.80;2.60;;;16.30;99.90;;;16.00;100.00;96176.19;5022366;28;20135;-38
2023/07/25 06:06:56;;;;;;;6.22;2.75;;;16.30;99.90;;;16.02;100.00;96169.81;5033762;28;20029;-37
2023/07/25 06:09:22;;;;;;;4.47;2.70;;;16.30;99.90;;;16.08;100.00;96164.94;5034453;28;20052;-37
2023/07/25 06:11:48;;;;;;;5.25;3.00;;;16.40;99.90;;;16.13;100.00;96184.94;5036089;28;20021;-37
2023/07/25 06:14:14;;;;;;;5.22;3.22;;;16.40;99.90;;;16.19;100.00;96181.78;5033396;28;20087;-37
2023/07/25 06:16:40;;;;;;;4.07;2.80;;;16.50;99.90;;;16.26;100.00;96181.28;5027264;28;20493;-37
2023/07/25 06:19:06;;;;;;;4.20;2.78;;;16.50;99.90;;;16.33;100.00;96187.81;5021761;28;20413;-38
2023/07/25 06:21:31;;;;;;;4.95;2.88;;;16.60;99.90;;;16.37;100.00;96197.25;5026385;28;20037;-37
2023/07/25 06:23:57;;;;;;;7.13;3.13;;;16.70;99.90;;;16.42;100.00;96192.41;5026471;28;20059;-38
2023/07/25 06:26:23;;;;;;;4.75;3.08;;;16.70;99.90;;;16.52;100.00;96185.38;5026825;28;20122;-37
2023/07/25 06:28:50;;;;;;;7.03;3.00;;;16.80;99.90;;;16.56;100.00;96186.84;5035086;28;20029;-38
2023/07/25 06:31:16;;;;;;;4.47;2.72;;;16.90;99.90;;;16.59;100.00;96185.72;5028586;28;20092;-37
2023/07/25 06:33:42;;;;;;;3.80;2.50;;;16.80;99.90;;;16.54;100.00;96180.75;5030064;28;20541;-39
2023/07/25 06:36:07;;;;;;;7.40;2.50;;;16.90;99.90;;;16.61;100.00;96189.94;5029811;28;20033;-38
2023/07/25 06:38:33;;;;;;;3.92;2.80;;;16.90;99.90;;;16.60;100.00;96187.44;5022185;28;20036;-38
2023/07/25 06:40:59;;;;;;;4.10;3.13;;;16.90;99.90;;;16.56;100.00;96192.16;5038077;28;20689;-38
2023/07/25 06:43:24;;;;;;;5.70;3.13;;;16.90;99.90;;;16.54;100.00;96186.09;5035175;28;20048;-38
2023/07/25 06:45:51;;;;;;;5.70;3.38;;;16.80;99.90;;;16.54;100.00;96190.56;5030673;28;20040;-39
2023/07/25 06:48:17;;;;;;;5.03;3.00;;;16.80;99.90;;;16.50;100.00;96197.13;5020449;28;20037;-38
2023/07/25 06:50:43;;;;;;;4.93;2.47;;;16.70;99.90;;;16.41;100.00;96198.69;5018046;28;20511;-38
2023/07/25 06:53:09;;;;;;;4.45;2.63;;;16.70;99.90;;;16.36;100.00;96190.22;5028932;28;20036;-37
2023/07/25 06:55:37;;;;;;;3.90;2.50;;;16.60;99.90;;;16.28;100.00;96188.19;5028999;28;20029;-37
2023/07/25 06:58:02;;;;;;;4.97;2.90;;;16.60;99.90;;;16.25;100.00;96179.59;5028387;28;20124;-37
2023/07/25 07:00:28;;;;;;;4.85;2.67;;;16.50;99.90;;;16.20;100.00;96178.16;5026729;28;20034;-39
2023/07/25 07:02:54;;;;;;;3.22;2.58;;;16.50;99.90;;;16.11;100.00;96160.25;5028273;28;20029;-38
2023/07/25 07:05:20;;;;;;;5.70;2.55;;;16.50;99.90;;;16.23;100.00;96177.88;5025478;28;20035;-38
2023/07/25 07:07:46;;;;;;;5.20;3.00;;;16.50;99.90;;;16.20;100.00;96191.47;5026127;28;20499;-37
2023/07/25 07:10:11;;;;;;;3.95;2.70;;;16.50;99.90;;;16.19;100.00;96181.78;5029310;28;20036;-37
2023/07/25 07:12:42;;;;;;;5.47;3.38;;;16.50;99.90;;;16.23;100.00;96180.56;5032084;28;20048;-37
2023/07/25 07:15:08;;;;;;;5.40;3.00;;;16.50;99.90;;;16.20;100.00;96180.81;5030568;28;20020;-38
2023/07/25 07:17:34;;;;;;;6.72;3.42;;;16.50;99.90;;;16.22;100.00;96181.53;5032288;28;20037;-37
2023/07/25 07:20:00;;;;;;;6.50;3.15;;;16.50;99.90;;;16.23;100.00;96167.25;5030579;28;20212;-37
2023/07/25 07:22:26;;;;;;;4.88;2.70;;;16.60;99.90;;;16.39;100.00;96155.41;5028783;28;20040;-38
2023/07/25 07:24:51;;;;;;;3.30;2.60;;;16.70;99.90;;;16.53;100.00;96154.31;5035442;28;20036;-37
2023/07/25 07:27:19;;;;;;;3.58;2.15;;;16.80;99.90;;;16.64;100.00;96153.44;5027225;28;20707;-38
2023/07/25 07:29:45;;;;;;;3.08;2.20;;;16.90;99.90;;;16.74;100.00;96162.34;5034130;28;20538;-37
2023/07/25 07:32:11;;;;;;;4.95;2.42;;;17.00;99.90;;;16.76;100.00;96147.09;5034576;28;20440;-37
2023/07/25 07:34:36;;;;;;;4.22;2.72;;;17.10;99.90;;;16.82;100.00;96151.91;5033036;28;20095;-39
2023/07/25 07:37:02;;;;;;;5.65;2.70;;;17.10;99.90;;;16.91;100.00;96151.19;5024992;28;20073;-38
2023/07/25 07:39:28;;;;;;;4.55;3.03;;;17.20;99.90;;;16.97;100.00;96156.00;5015521;28;20040;-38
2023/07/25 07:41:54;;;;;;;3.70;2.70;;;17.30;99.90;;;17.06;100.00;96145.56;5019809;28;20350;-38
2023/07/25 07:44:19;;;;;;;7.78;3.08;;;17.30;99.90;;;17.14;100.00;96151.13;5028564;28;20124;-37
2023/07/25 07:46:45;;;;;;;6.50;3.33;;;17.40;99.90;;;17.26;100.00;96138.56;5033959;28;20033;-37
2023/07/25 07:49:11;;;;;;;5.07;3.47;;;17.50;99.90;;;17.51;100.00;96135.50;5031516;28;20037;-36
2023/07/25 07:51:36;;;;;;;5.03;3.17;;;17.70;99.90;;;17.81;100.00;96144.53;5032198;28;20086;-36
2023/07/25 07:54:02;;;;;;;4.40;3.22;;;18.00;99.90;;;18.05;100.00;96146.09;5032244;28;20495;-38
2023/07/25 07:56:28;;;;;;;6.82;3.35;;;18.30;99.90;;;18.30;100.00;96150.13;5030636;28;20017;-38
2023/07/25 07:58:53;;;;;;;4.05;2.70;;;18.50;99.90;;;18.41;100.00;96135.84;5029785;28;20033;-38
2023/07/25 08:01:23;;;;;;;5.10;2.90;;;18.60;99.90;;;18.64;100.00;96136.44;5026179;28;20558;-38
2023/07/25 08:03:49;;;;;;;3.60;2.40;;;18.80;99.90;;;18.71;100.00;96148.28;5033680;28;20060;-37
2023/07/25 08:06:15;;;;;;;4.20;2.25;;;18.90;99.90;;;18.74;100.00;96147.16;5033613;28;20064;-39
2023/07/25 08:08:41;;;;;;;3.38;2.10;;;19.00;99.90;;;19.04;100.00;96157.78;5031984;28;20473;-38
2023/07/25 08:11:07;;;;;;;3.97;2.38;;;19.30;99.90;;;19.26;100.00;96161.16;5031141;28;20039;-38
2023/07/25 08:13:32;;;;;;;3.63;2.33;;;19.60;99.90;;;19.39;100.00;96161.72;5034876;28;20215;-38
2023/07/25 08:15:58;;;;;;;3.30;1.90;;;19.70;99.90;;;19.42;100.00;96163.28;5020561;28;20037;-37
2023/07/25 08:18:24;;;;;;;2.67;1.90;;;19.70;99.90;;;19.40;100.00;96155.38;5033002;28;20112;-37
2023/07/25 08:20:58;;;;;;;3.38;1.80;;;19.70;99.90;;;19.33;100.00;96148.94;5036409;28;20017;-38
2023/07/25 08:23:25;;;;;;;4.53;2.25;;;19.70;99.90;;;19.26;100.00;96147.81;5028485;28;20033;-37
2023/07/25 08:25:51;;;;;;;3.55;1.90;;;19.60;99.90;;;19.25;100.00;96146.09;5031392;28;20112;-38
2023/07/25 08:28:17;;;;;;;2.67;1.70;;;19.60;99.90;;;19.23;100.00;96143.56;5033146;28;20037;-37
2023/07/25 08:30:43;;;;;;;2.65;1.67;;;19.60;99.90;;;19.33;100.00;96145.41;5030872;28;20027;-37
2023/07/25 08:33:12;;;;;;;3.05;1.75;;;19.70;99.90;;;19.44;100.00;96147.94;5035042;28;20100;-38
2023/07/25 08:35:38;;;;;;;5.05;2.08;;;19.80;99.90;;;19.34;100.00;96136.41;5031833;28;20067;-39
2023/07/25 08:38:04;;;;;;;2.83;2.10;;;19.80;99.90;;;19.35;100.00;96146.13;5032885;28;20025;-38
2023/07/25 08:40:30;;;;;;;4.72;2.17;;;19.70;99.90;;;19.40;100.00;96138.50;5029624;28;20079;-38
2023/07/25 08:43:02;;;;;;;10.80;2.67;;;19.70;99.90;;;19.50;100.00;96144.66;5036498;28;20028;-38
2023/07/25 08:45:29;;;;;;;3.40;1.85;;;19.70;99.90;;;19.59;100.00;96151.00;5030896;28;20934;-40
2023/07/25 08:48:03;;;;;;;5.18;2.70;;;19.90;99.90;;;19.65;100.00;96142.41;5033922;28;20408;-38
2023/07/25 08:50:31;;;;;;;3.65;2.47;;;20.00;99.90;;;19.79;100.00;96142.00;5033370;28;20041;-39
2023/07/25 08:53:00;;;;;;;4.22;2.58;;;20.20;99.90;;;20.08;100.00;96148.22;5030956;28;20029;-38
2023/07/25 08:55:26;;;;;;;7.10;2.40;;;20.30;99.90;;;20.19;100.00;96151.59;5026236;28;20076;-38
2023/07/25 08:57:52;;;;;;;2.25;1.67;;;20.50;99.90;;;20.37;100.00;96142.78;5027956;28;20977;-37
2023/07/25 09:00:19;;;;;;;3.83;2.03;;;20.70;99.90;;;20.37;100.00;96146.28;5030087;28;20536;-39
2023/07/25 09:02:44;;;;;;;2.85;1.70;;;20.80;99.90;;;20.62;100.00;96146.63;5030932;28;20045;-40
2023/07/25 09:05:11;;;;;;;4.15;2.30;;;20.90;99.90;;;20.68;100.00;96142.50;5036125;28;20503;-38
2023/07/25 09:07:36;;;;;;;5.13;2.38;;;21.00;99.90;;;20.65;100.00;96154.34;5035901;28;20575;-38
2023/07/25 09:10:02;;;;;;;4.93;1.88;;;21.00;99.90;;;20.57;100.00;96144.34;5031365;28;20021;-38
2023/07/25 09:12:29;;;;;;;4.10;1.95;;;20.90;99.90;;;20.54;100.00;96149.16;5030563;28;20072;-38
2023/07/25 09:14:54;;;;;;;2.95;1.90;;;20.90;99.90;;;20.30;100.00;96147.03;5027764;28;20068;-38
2023/07/25 09:17:21;;;;;;;4.38;1.67;;;20.70;99.90;;;20.16;100.00;96138.47;5032329;28;20554;-38
2023/07/25 09:19:48;;;;;;;3.78;1.63;;;20.50;99.90;;;20.10;100.00;96141.75;5036317;28;20044;-38
2023/07/25 09:22:31;;;;;;;2.90;1.50;;;20.50;99.90;;;20.06;100.00;96145.69;5032990;28;20106;-39
2023/07/25 09:24:58;;;;;;;2.88;1.63;;;20.50;99.90;;;20.18;100.00;96139.16;5033035;28;20142;-39
2023/07/25 09:27:25;;;;;;;5.28;1.90;;;20.50;99.90;;;20.29;100.00;96139.97;5032639;28;20032;-39
2023/07/25 09:29:52;;;;;;;2.83;1.42;;;20.60;99.90;;;20.48;100.00;96123.00;5031296;28;20516;-39
2023/07/25 09:32:24;;;;;;;3.20;1.63;;;20.90;99.90;;;20.84;100.00;96141.84;5036857;28;20037;-39
2023/07/25 09:35:01;;;;;;;2.40;1.38;;;21.10;99.90;;;21.02;100.00;96134.66;5037080;28;20037;-39
2023/07/25 09:37:30;;;;;;;3.28;1.73;;;21.30;99.90;;;20.93;100.00;96146.28;5034480;28;20337;-37
2023/07/25 09:39:56;;;;;;;2.47;1.42;;;21.30;99.90;;;21.00;100.00;96128.59;5037457;28;20053;-39
2023/07/25 09:42:25;;;;;;;2.63;1.50;;;21.30;99.90;;;21.04;100.00;96134.50;5030456;28;20143;-39
2023/07/25 09:44:54;;;;;;;2.13;1.40;;;21.40;99.90;;;20.95;100.00;96139.78;5029383;28;20041;-38
2023/07/25 09:47:27;;;;;;;3.03;1.35;;;21.30;99.90;;;20.91;100.00;96138.41;5029648;28;20424;-39
2023/07/25 09:49:55;;;;;;;7.95;1.48;;;21.30;99.90;;;20.76;100.00;96132.72;5031478;28;20025;-39
2023/07/25 09:52:22;;;;;;;2.92;1.58;;;21.20;99.90;;;20.68;100.00;96134.47;5030647;28;20032;-37
2023/07/25 09:54:48;;;;;;;2.13;1.40;;;21.10;99.90;;;20.60;100.00;96146.75;5032532;28;20452;-38
2023/07/25 09:57:14;;;;;;;2.90;1.23;;;21.00;99.90;;;20.62;100.00;96143.09;5031728;28;20174;-38
2023/07/25 09:59:40;;;;;;;3.50;1.73;;;20.90;99.90;;;20.61;100.00;96126.19;5027399;28;20080;-40
2023/07/25 10:02:07;;;;;;;3.85;1.77;;;20.90;99.90;;;20.56;100.00;96137.28;5024451;28;20498;-39
2023/07/25 10:04:36;;;;;;;2.90;1.35;;;20.80;99.90;;;20.53;100.00;96140.28;5045807;28;20049;-37
2023/07/25 10:07:02;;;;;;;2.80;1.40;;;20.80;99.90;;;20.53;100.00;96139.44;5030558;28;20051;-37
2023/07/25 10:09:30;;;;;;;3.17;1.60;;;20.80;99.90;;;20.67;100.00;96133.59;5030277;28;20036;-37